sensor_id;sensor_type;location;lat;lon;timestamp;pressure;altitude;pressure_sealevel;temperature
15680;BMP180;15488;48.114;11.532;2023-08-01T00:01:38;94635.00;;;26.40
15680;BMP180;15488;48.114;11.532;2023-08-01T00:04:06;94630.00;;;26.40
15680;BMP180;15488;48.114;11.532;2023-08-01T00:06:33;94629.00;;;26.40
15680;BMP180;15488;48.114;11.532;2023-08-01T00:09:02;94622.00;;;26.40
15680;BMP180;15488;48.114;11.532;2023-08-01T00:11:29;94618.00;;;26.40
15680;BMP180;15488;48.114;11.532;2023-08-01T00:13:57;94616.00;;;26.40
15680;BMP180;15488;48.114;11.532;2023-08-01T00:16:24;94609.00;;;26.40
15680;BMP180;15488;48.114;11.532;2023-08-01T00:18:52;94602.00;;;26.40
15680;BMP180;15488;48.114;11.532;2023-08-01T00:21:19;94594.00;;;26.40
15680;BMP180;15488;48.114;11.532;2023-08-01T00:23:47;94601.00;;;26.50
15680;BMP180;15488;48.114;11.532;2023-08-01T00:26:16;94599.00;;;26.40
15680;BMP180;15488;48.114;11.532;2023-08-01T00:28:43;94592.00;;;26.40
15680;BMP180;15488;48.114;11.532;2023-08-01T00:31:10;94581.00;;;26.50
15680;BMP180;15488;48.114;11.532;2023-08-01T00:33:38;94575.00;;;26.40
15680;BMP180;15488;48.114;11.532;2023-08-01T00:36:05;94574.00;;;26.40
15680;BMP180;15488;48.114;11.532;2023-08-01T00:38:35;94569.00;;;26.40
15680;BMP180;15488;48.114;11.532;2023-08-01T00:41:03;94568.00;;;26.40
15680;BMP180;15488;48.114;11.532;2023-08-01T00:43:31;94560.00;;;26.40
15680;BMP180;15488;48.114;11.532;2023-08-01T00:46:00;94558.00;;;26.40
15680;BMP180;15488;48.114;11.532;2023-08-01T00:48:30;94552.00;;;26.30
15680;BMP180;15488;48.114;11.532;2023-08-01T00:50:59;94541.00;;;26.30
15680;BMP180;15488;48.114;11.532;2023-08-01T00:53:27;94532.00;;;26.30
15680;BMP180;15488;48.114;11.532;2023-08-01T00:55:56;94537.00;;;26.20
15680;BMP180;15488;48.114;11.532;2023-08-01T00:58:23;94532.00;;;26.20
15680;BMP180;15488;48.114;11.532;2023-08-01T01:00:52;94531.00;;;26.10
15680;BMP180;15488;48.114;11.532;2023-08-01T01:03:21;94528.00;;;26.10
15680;BMP180;15488;48.114;11.532;2023-08-01T01:05:53;94529.00;;;26.10
15680;BMP180;15488;48.114;11.532;2023-08-01T01:08:23;94524.00;;;26.10
15680;BMP180;15488;48.114;11.532;2023-08-01T01:10:51;94519.00;;;26.00
15680;BMP180;15488;48.114;11.532;2023-08-01T01:13:18;94516.00;;;25.90
15680;BMP180;15488;48.114;11.532;2023-08-01T01:15:45;94517.00;;;25.90
15680;BMP180;15488;48.114;11.532;2023-08-01T01:18:14;94515.00;;;25.90
15680;BMP180;15488;48.114;11.532;2023-08-01T01:20:43;94505.00;;;25.70
15680;BMP180;15488;48.114;11.532;2023-08-01T01:23:11;94496.00;;;25.70
15680;BMP180;15488;48.114;11.532;2023-08-01T01:25:39;94491.00;;;25.70
15680;BMP180;15488;48.114;11.532;2023-08-01T01:28:08;94484.00;;;25.80
15680;BMP180;15488;48.114;11.532;2023-08-01T01:30:36;94489.00;;;25.70
15680;BMP180;15488;48.114;11.532;2023-08-01T01:33:04;94494.00;;;25.70
15680;BMP180;15488;48.114;11.532;2023-08-01T01:35:33;94502.00;;;25.70
15680;BMP180;15488;48.114;11.532;2023-08-01T01:38:03;94496.00;;;25.70
15680;BMP180;15488;48.114;11.532;2023-08-01T01:40:31;94494.00;;;25.80
15680;BMP180;15488;48.114;11.532;2023-08-01T01:42:59;94492.00;;;25.70
15680;BMP180;15488;48.114;11.532;2023-08-01T01:45:27;94493.00;;;25.70
15680;BMP180;15488;48.114;11.532;2023-08-01T01:47:55;94491.00;;;25.60
15680;BMP180;15488;48.114;11.532;2023-08-01T01:50:22;94480.00;;;25.60
15680;BMP180;15488;48.114;11.532;2023-08-01T01:52:50;94482.00;;;25.60
15680;BMP180;15488;48.114;11.532;2023-08-01T01:55:18;94478.00;;;25.70
15680;BMP180;15488;48.114;11.532;2023-08-01T01:57:46;94469.00;;;25.70
15680;BMP180;15488;48.114;11.532;2023-08-01T02:00:13;94465.00;;;25.70
15680;BMP180;15488;48.114;11.532;2023-08-01T02:09:19;94437.00;;;25.80
15680;BMP180;15488;48.114;11.532;2023-08-01T02:11:48;94436.00;;;25.80
15680;BMP180;15488;48.114;11.532;2023-08-01T02:14:15;94433.00;;;25.80
15680;BMP180;15488;48.114;11.532;2023-08-01T02:16:43;94424.00;;;25.80
15680;BMP180;15488;48.114;11.532;2023-08-01T02:19:10;94426.00;;;25.90
15680;BMP180;15488;48.114;11.532;2023-08-01T02:21:38;94417.00;;;25.90
15680;BMP180;15488;48.114;11.532;2023-08-01T02:24:05;94416.00;;;25.90
15680;BMP180;15488;48.114;11.532;2023-08-01T02:26:33;94412.00;;;26.00
15680;BMP180;15488;48.114;11.532;2023-08-01T02:29:01;94409.00;;;26.00
15680;BMP180;15488;48.114;11.532;2023-08-01T02:31:29;94408.00;;;26.00
15680;BMP180;15488;48.114;11.532;2023-08-01T02:33:56;94404.00;;;26.00
15680;BMP180;15488;48.114;11.532;2023-08-01T02:36:24;94408.00;;;26.00
15680;BMP180;15488;48.114;11.532;2023-08-01T02:38:51;94415.00;;;26.10
15680;BMP180;15488;48.114;11.532;2023-08-01T02:41:19;94409.00;;;26.00
15680;BMP180;15488;48.114;11.532;2023-08-01T02:43:46;94409.00;;;26.00
15680;BMP180;15488;48.114;11.532;2023-08-01T02:46:15;94404.00;;;26.00
15680;BMP180;15488;48.114;11.532;2023-08-01T02:48:42;94406.00;;;26.00
15680;BMP180;15488;48.114;11.532;2023-08-01T02:51:10;94402.00;;;26.10
15680;BMP180;15488;48.114;11.532;2023-08-01T02:53:37;94408.00;;;26.10
15680;BMP180;15488;48.114;11.532;2023-08-01T02:56:06;94414.00;;;26.10
15680;BMP180;15488;48.114;11.532;2023-08-01T02:58:36;94414.00;;;26.10
15680;BMP180;15488;48.114;11.532;2023-08-01T03:01:06;94415.00;;;26.10
15680;BMP180;15488;48.114;11.532;2023-08-01T03:03:37;94424.00;;;26.10
15680;BMP180;15488;48.114;11.532;2023-08-01T03:06:04;94429.00;;;26.10
15680;BMP180;15488;48.114;11.532;2023-08-01T03:08:31;94432.00;;;26.10
15680;BMP180;15488;48.114;11.532;2023-08-01T03:10:59;94429.00;;;26.10
15680;BMP180;15488;48.114;11.532;2023-08-01T03:13:26;94421.00;;;26.10
15680;BMP180;15488;48.114;11.532;2023-08-01T03:15:54;94416.00;;;26.10
15680;BMP180;15488;48.114;11.532;2023-08-01T03:18:21;94414.00;;;26.10
15680;BMP180;15488;48.114;11.532;2023-08-01T03:20:50;94418.00;;;26.10
15680;BMP180;15488;48.114;11.532;2023-08-01T03:23:18;94414.00;;;26.10
15680;BMP180;15488;48.114;11.532;2023-08-01T03:25:46;94410.00;;;26.10
15680;BMP180;15488;48.114;11.532;2023-08-01T03:28:13;94426.00;;;26.10
15680;BMP180;15488;48.114;11.532;2023-08-01T03:30:41;94426.00;;;26.10
15680;BMP180;15488;48.114;11.532;2023-08-01T03:33:08;94425.00;;;26.10
15680;BMP180;15488;48.114;11.532;2023-08-01T03:35:36;94427.00;;;26.10
15680;BMP180;15488;48.114;11.532;2023-08-01T03:38:05;94421.00;;;26.10
15680;BMP180;15488;48.114;11.532;2023-08-01T03:40:32;94429.00;;;26.10
15680;BMP180;15488;48.114;11.532;2023-08-01T03:42:59;94425.00;;;26.10
15680;BMP180;15488;48.114;11.532;2023-08-01T03:45:27;94426.00;;;26.10
15680;BMP180;15488;48.114;11.532;2023-08-01T03:47:54;94433.00;;;26.10
15680;BMP180;15488;48.114;11.532;2023-08-01T03:50:22;94434.00;;;26.00
15680;BMP180;15488;48.114;11.532;2023-08-01T03:52:49;94433.00;;;26.00
15680;BMP180;15488;48.114;11.532;2023-08-01T03:55:19;94441.00;;;26.00
15680;BMP180;15488;48.114;11.532;2023-08-01T03:57:46;94444.00;;;26.00
15680;BMP180;15488;48.114;11.532;2023-08-01T04:00:14;94441.00;;;26.00
15680;BMP180;15488;48.114;11.532;2023-08-01T04:02:44;94452.00;;;26.00
15680;BMP180;15488;48.114;11.532;2023-08-01T04:05:12;94452.00;;;26.10
15680;BMP180;15488;48.114;11.532;2023-08-01T04:07:39;94449.00;;;26.00
15680;BMP180;15488;48.114;11.532;2023-08-01T04:10:07;94450.00;;;26.00
15680;BMP180;15488;48.114;11.532;2023-08-01T04:12:36;94454.00;;;25.90
15680;BMP180;15488;48.114;11.532;2023-08-01T04:15:05;94448.00;;;25.90
15680;BMP180;15488;48.114;11.532;2023-08-01T04:17:32;94460.00;;;25.90
15680;BMP180;15488;48.114;11.532;2023-08-01T04:20:00;94446.00;;;25.90
15680;BMP180;15488;48.114;11.532;2023-08-01T04:22:27;94458.00;;;25.90
15680;BMP180;15488;48.114;11.532;2023-08-01T04:24:55;94442.00;;;25.90
15680;BMP180;15488;48.114;11.532;2023-08-01T04:27:22;94451.00;;;25.80
15680;BMP180;15488;48.114;11.532;2023-08-01T04:29:51;94449.00;;;25.80
15680;BMP180;15488;48.114;11.532;2023-08-01T04:32:18;94452.00;;;25.80
15680;BMP180;15488;48.114;11.532;2023-08-01T04:34:46;94460.00;;;25.80
15680;BMP180;15488;48.114;11.532;2023-08-01T04:37:13;94460.00;;;25.70
15680;BMP180;15488;48.114;11.532;2023-08-01T04:39:41;94459.00;;;25.70
15680;BMP180;15488;48.114;11.532;2023-08-01T04:42:08;94442.00;;;25.70
15680;BMP180;15488;48.114;11.532;2023-08-01T04:44:36;94439.00;;;25.70
15680;BMP180;15488;48.114;11.532;2023-08-01T04:47:05;94432.00;;;25.60
15680;BMP180;15488;48.114;11.532;2023-08-01T04:49:33;94435.00;;;25.70
15680;BMP180;15488;48.114;11.532;2023-08-01T04:52:00;94438.00;;;25.60
15680;BMP180;15488;48.114;11.532;2023-08-01T04:54:27;94440.00;;;25.60
15680;BMP180;15488;48.114;11.532;2023-08-01T04:56:55;94442.00;;;25.50
15680;BMP180;15488;48.114;11.532;2023-08-01T04:59:22;94429.00;;;25.50
15680;BMP180;15488;48.114;11.532;2023-08-01T05:01:50;94429.00;;;25.60
15680;BMP180;15488;48.114;11.532;2023-08-01T05:04:18;94421.00;;;25.50
15680;BMP180;15488;48.114;11.532;2023-08-01T05:06:46;94425.00;;;25.50
15680;BMP180;15488;48.114;11.532;2023-08-01T05:09:13;94432.00;;;25.50
15680;BMP180;15488;48.114;11.532;2023-08-01T05:11:41;94416.00;;;25.50
15680;BMP180;15488;48.114;11.532;2023-08-01T05:14:08;94411.00;;;25.50
15680;BMP180;15488;48.114;11.532;2023-08-01T05:16:36;94416.00;;;25.50
15680;BMP180;15488;48.114;11.532;2023-08-01T05:19:03;94404.00;;;25.40
15680;BMP180;15488;48.114;11.532;2023-08-01T05:21:32;94392.00;;;25.40
15680;BMP180;15488;48.114;11.532;2023-08-01T05:23:59;94387.00;;;25.30
15680;BMP180;15488;48.114;11.532;2023-08-01T05:26:27;94390.00;;;25.20
15680;BMP180;15488;48.114;11.532;2023-08-01T05:28:54;94385.00;;;25.20
15680;BMP180;15488;48.114;11.532;2023-08-01T05:31:22;94388.00;;;25.10
15680;BMP180;15488;48.114;11.532;2023-08-01T05:33:49;94390.00;;;25.10
15680;BMP180;15488;48.114;11.532;2023-08-01T05:36:17;94396.00;;;25.10
15680;BMP180;15488;48.114;11.532;2023-08-01T05:38:46;94397.00;;;25.00
15680;BMP180;15488;48.114;11.532;2023-08-01T05:41:13;94401.00;;;25.00
15680;BMP180;15488;48.114;11.532;2023-08-01T05:43:40;94399.00;;;25.00
15680;BMP180;15488;48.114;11.532;2023-08-01T05:46:08;94402.00;;;24.90
15680;BMP180;15488;48.114;11.532;2023-08-01T05:48:36;94412.00;;;24.80
15680;BMP180;15488;48.114;11.532;2023-08-01T05:51:03;94403.00;;;24.80
15680;BMP180;15488;48.114;11.532;2023-08-01T05:53:30;94399.00;;;24.60
15680;BMP180;15488;48.114;11.532;2023-08-01T05:55:59;94389.00;;;24.60
15680;BMP180;15488;48.114;11.532;2023-08-01T05:58:27;94399.00;;;24.70
15680;BMP180;15488;48.114;11.532;2023-08-01T06:00:54;94399.00;;;24.60
15680;BMP180;15488;48.114;11.532;2023-08-01T06:03:22;94404.00;;;24.60
15680;BMP180;15488;48.114;11.532;2023-08-01T06:05:49;94391.00;;;24.60
15680;BMP180;15488;48.114;11.532;2023-08-01T06:08:17;94403.00;;;24.60
15680;BMP180;15488;48.114;11.532;2023-08-01T06:10:44;94400.00;;;24.60
15680;BMP180;15488;48.114;11.532;2023-08-01T06:13:13;94393.00;;;24.50
15680;BMP180;15488;48.114;11.532;2023-08-01T06:15:41;94390.00;;;24.50
15680;BMP180;15488;48.114;11.532;2023-08-01T06:18:08;94390.00;;;24.40
15680;BMP180;15488;48.114;11.532;2023-08-01T06:20:37;94386.00;;;24.40
15680;BMP180;15488;48.114;11.532;2023-08-01T06:23:04;94380.00;;;24.40
15680;BMP180;15488;48.114;11.532;2023-08-01T06:25:32;94377.00;;;24.40
15680;BMP180;15488;48.114;11.532;2023-08-01T06:27:59;94372.00;;;24.40
15680;BMP180;15488;48.114;11.532;2023-08-01T06:30:28;94368.00;;;24.50
15680;BMP180;15488;48.114;11.532;2023-08-01T06:32:56;94361.00;;;24.40
15680;BMP180;15488;48.114;11.532;2023-08-01T06:35:23;94352.00;;;24.40
15680;BMP180;15488;48.114;11.532;2023-08-01T06:37:51;94349.00;;;24.40
15680;BMP180;15488;48.114;11.532;2023-08-01T06:40:18;94340.00;;;24.40
15680;BMP180;15488;48.114;11.532;2023-08-01T06:42:46;94330.00;;;24.40
15680;BMP180;15488;48.114;11.532;2023-08-01T06:45:13;94323.00;;;24.40
15680;BMP180;15488;48.114;11.532;2023-08-01T06:47:42;94327.00;;;24.40
15680;BMP180;15488;48.114;11.532;2023-08-01T06:50:10;94321.00;;;24.40
15680;BMP180;15488;48.114;11.532;2023-08-01T06:52:37;94311.00;;;24.40
15680;BMP180;15488;48.114;11.532;2023-08-01T06:55:06;94305.00;;;24.50
15680;BMP180;15488;48.114;11.532;2023-08-01T06:57:33;94305.00;;;24.50
15680;BMP180;15488;48.114;11.532;2023-08-01T07:00:00;94293.00;;;24.40
15680;BMP180;15488;48.114;11.532;2023-08-01T07:02:28;94292.00;;;24.50
15680;BMP180;15488;48.114;11.532;2023-08-01T07:04:57;94294.00;;;24.50
15680;BMP180;15488;48.114;11.532;2023-08-01T07:07:25;94287.00;;;24.50
15680;BMP180;15488;48.114;11.532;2023-08-01T07:09:52;94280.00;;;24.50
15680;BMP180;15488;48.114;11.532;2023-08-01T07:12:19;94284.00;;;24.50
15680;BMP180;15488;48.114;11.532;2023-08-01T07:14:47;94277.00;;;24.50
15680;BMP180;15488;48.114;11.532;2023-08-01T07:17:14;94270.00;;;24.30
15680;BMP180;15488;48.114;11.532;2023-08-01T07:19:42;94277.00;;;24.40
15680;BMP180;15488;48.114;11.532;2023-08-01T07:22:11;94273.00;;;24.40
15680;BMP180;15488;48.114;11.532;2023-08-01T07:24:38;94253.00;;;24.40
15680;BMP180;15488;48.114;11.532;2023-08-01T07:27:06;94264.00;;;24.30
15680;BMP180;15488;48.114;11.532;2023-08-01T07:29:33;94249.00;;;24.40
15680;BMP180;15488;48.114;11.532;2023-08-01T07:32:01;94259.00;;;24.40
15680;BMP180;15488;48.114;11.532;2023-08-01T07:34:28;94272.00;;;24.50
15680;BMP180;15488;48.114;11.532;2023-08-01T07:36:56;94281.00;;;24.50
15680;BMP180;15488;48.114;11.532;2023-08-01T07:39:25;94292.00;;;24.50
15680;BMP180;15488;48.114;11.532;2023-08-01T07:41:52;94246.00;;;24.40
15680;BMP180;15488;48.114;11.532;2023-08-01T07:44:19;94222.00;;;24.50
15680;BMP180;15488;48.114;11.532;2023-08-01T07:46:47;94233.00;;;24.50
15680;BMP180;15488;48.114;11.532;2023-08-01T07:49:14;94233.00;;;24.50
15680;BMP180;15488;48.114;11.532;2023-08-01T07:51:42;94252.00;;;24.50
15680;BMP180;15488;48.114;11.532;2023-08-01T07:54:10;94225.00;;;24.50
15680;BMP180;15488;48.114;11.532;2023-08-01T07:56:39;94227.00;;;24.50
15680;BMP180;15488;48.114;11.532;2023-08-01T07:59:06;94239.00;;;24.50
15680;BMP180;15488;48.114;11.532;2023-08-01T08:01:33;94246.00;;;24.50
15680;BMP180;15488;48.114;11.532;2023-08-01T08:04:01;94233.00;;;24.50
15680;BMP180;15488;48.114;11.532;2023-08-01T08:06:28;94242.00;;;24.50
15680;BMP180;15488;48.114;11.532;2023-08-01T08:08:57;94238.00;;;24.50
15680;BMP180;15488;48.114;11.532;2023-08-01T08:11:25;94238.00;;;24.50
15680;BMP180;15488;48.114;11.532;2023-08-01T08:13:53;94220.00;;;24.60
15680;BMP180;15488;48.114;11.532;2023-08-01T08:16:21;94199.00;;;24.70
15680;BMP180;15488;48.114;11.532;2023-08-01T08:18:48;94196.00;;;24.90
15680;BMP180;15488;48.114;11.532;2023-08-01T08:21:16;94249.00;;;25.00
15680;BMP180;15488;48.114;11.532;2023-08-01T08:23:44;94238.00;;;25.00
15680;BMP180;15488;48.114;11.532;2023-08-01T08:26:11;94255.00;;;25.20
15680;BMP180;15488;48.114;11.532;2023-08-01T08:28:39;94243.00;;;25.40
15680;BMP180;15488;48.114;11.532;2023-08-01T08:31:09;94258.00;;;25.50
15680;BMP180;15488;48.114;11.532;2023-08-01T08:33:37;94254.00;;;25.60
15680;BMP180;15488;48.114;11.532;2023-08-01T08:36:04;94251.00;;;25.60
15680;BMP180;15488;48.114;11.532;2023-08-01T08:38:32;94242.00;;;25.60
15680;BMP180;15488;48.114;11.532;2023-08-01T08:41:08;94248.00;;;25.60
15680;BMP180;15488;48.114;11.532;2023-08-01T08:43:36;94245.00;;;25.80
15680;BMP180;15488;48.114;11.532;2023-08-01T08:46:05;94247.00;;;25.80
15680;BMP180;15488;48.114;11.532;2023-08-01T08:48:34;94255.00;;;26.00
15680;BMP180;15488;48.114;11.532;2023-08-01T08:51:03;94268.00;;;26.10
15680;BMP180;15488;48.114;11.532;2023-08-01T08:53:31;94276.00;;;26.10
15680;BMP180;15488;48.114;11.532;2023-08-01T08:56:00;94269.00;;;26.20
15680;BMP180;15488;48.114;11.532;2023-08-01T08:58:29;94273.00;;;26.30
15680;BMP180;15488;48.114;11.532;2023-08-01T09:00:57;94288.00;;;26.30
15680;BMP180;15488;48.114;11.532;2023-08-01T09:03:25;94287.00;;;26.20
15680;BMP180;15488;48.114;11.532;2023-08-01T09:05:59;94276.00;;;26.10
15680;BMP180;15488;48.114;11.532;2023-08-01T09:08:29;94269.00;;;26.00
15680;BMP180;15488;48.114;11.532;2023-08-01T09:10:59;94274.00;;;26.00
15680;BMP180;15488;48.114;11.532;2023-08-01T09:13:27;94261.00;;;26.10
15680;BMP180;15488;48.114;11.532;2023-08-01T09:15:55;94261.00;;;26.00
15680;BMP180;15488;48.114;11.532;2023-08-01T09:18:23;94243.00;;;26.10
15680;BMP180;15488;48.114;11.532;2023-08-01T09:20:51;94252.00;;;26.20
15680;BMP180;15488;48.114;11.532;2023-08-01T09:23:20;94264.00;;;26.20
15680;BMP180;15488;48.114;11.532;2023-08-01T09:25:47;94266.00;;;25.80
15680;BMP180;15488;48.114;11.532;2023-08-01T09:28:16;94296.00;;;26.00
15680;BMP180;15488;48.114;11.532;2023-08-01T09:30:51;94289.00;;;26.00
15680;BMP180;15488;48.114;11.532;2023-08-01T09:33:20;94301.00;;;26.10
15680;BMP180;15488;48.114;11.532;2023-08-01T09:35:50;94306.00;;;25.90
15680;BMP180;15488;48.114;11.532;2023-08-01T09:38:19;94305.00;;;26.00
15680;BMP180;15488;48.114;11.532;2023-08-01T09:40:47;94315.00;;;26.00
15680;BMP180;15488;48.114;11.532;2023-08-01T09:43:16;94309.00;;;26.20
15680;BMP180;15488;48.114;11.532;2023-08-01T09:45:51;94307.00;;;25.80
15680;BMP180;15488;48.114;11.532;2023-08-01T09:48:23;94302.00;;;25.80
15680;BMP180;15488;48.114;11.532;2023-08-01T09:50:52;94297.00;;;25.60
15680;BMP180;15488;48.114;11.532;2023-08-01T09:53:21;94296.00;;;25.60
15680;BMP180;15488;48.114;11.532;2023-08-01T09:55:49;94298.00;;;25.50
15680;BMP180;15488;48.114;11.532;2023-08-01T09:58:21;94295.00;;;25.30
15680;BMP180;15488;48.114;11.532;2023-08-01T10:00:49;94313.00;;;25.50
15680;BMP180;15488;48.114;11.532;2023-08-01T10:03:17;94319.00;;;25.50
15680;BMP180;15488;48.114;11.532;2023-08-01T10:05:45;94308.00;;;25.50
15680;BMP180;15488;48.114;11.532;2023-08-01T10:08:13;94337.00;;;25.50
15680;BMP180;15488;48.114;11.532;2023-08-01T10:10:43;94342.00;;;25.40
15680;BMP180;15488;48.114;11.532;2023-08-01T10:13:13;94341.00;;;25.00
15680;BMP180;15488;48.114;11.532;2023-08-01T10:15:41;94362.00;;;25.20
15680;BMP180;15488;48.114;11.532;2023-08-01T10:18:09;94351.00;;;25.00
15680;BMP180;15488;48.114;11.532;2023-08-01T10:20:37;94356.00;;;25.10
15680;BMP180;15488;48.114;11.532;2023-08-01T10:23:05;94346.00;;;25.00
15680;BMP180;15488;48.114;11.532;2023-08-01T10:25:33;94340.00;;;25.10
15680;BMP180;15488;48.114;11.532;2023-08-01T10:28:03;94351.00;;;25.00
15680;BMP180;15488;48.114;11.532;2023-08-01T10:30:31;94333.00;;;25.10
15680;BMP180;15488;48.114;11.532;2023-08-01T10:32:59;94326.00;;;24.90
15680;BMP180;15488;48.114;11.532;2023-08-01T10:35:34;94325.00;;;24.80
15680;BMP180;15488;48.114;11.532;2023-08-01T10:38:06;94325.00;;;24.90
15680;BMP180;15488;48.114;11.532;2023-08-01T10:40:35;94328.00;;;25.00
15680;BMP180;15488;48.114;11.532;2023-08-01T10:43:04;94330.00;;;24.80
15680;BMP180;15488;48.114;11.532;2023-08-01T10:45:31;94313.00;;;24.70
15680;BMP180;15488;48.114;11.532;2023-08-01T10:48:09;94333.00;;;24.60
15680;BMP180;15488;48.114;11.532;2023-08-01T10:50:37;94335.00;;;24.50
15680;BMP180;15488;48.114;11.532;2023-08-01T10:53:07;94334.00;;;24.40
15680;BMP180;15488;48.114;11.532;2023-08-01T10:55:43;94313.00;;;24.40
15680;BMP180;15488;48.114;11.532;2023-08-01T10:58:12;94304.00;;;24.50
15680;BMP180;15488;48.114;11.532;2023-08-01T11:00:40;94312.00;;;24.60
15680;BMP180;15488;48.114;11.532;2023-08-01T11:03:08;94299.00;;;24.60
15680;BMP180;15488;48.114;11.532;2023-08-01T11:05:38;94287.00;;;24.60
15680;BMP180;15488;48.114;11.532;2023-08-01T11:08:06;94293.00;;;24.50
15680;BMP180;15488;48.114;11.532;2023-08-01T11:10:33;94313.00;;;24.40
15680;BMP180;15488;48.114;11.532;2023-08-01T11:13:01;94302.00;;;24.40
15680;BMP180;15488;48.114;11.532;2023-08-01T11:15:30;94303.00;;;24.20
15680;BMP180;15488;48.114;11.532;2023-08-01T11:17:58;94310.00;;;24.30
15680;BMP180;15488;48.114;11.532;2023-08-01T11:20:25;94307.00;;;24.30
15680;BMP180;15488;48.114;11.532;2023-08-01T11:22:55;94294.00;;;24.40
15680;BMP180;15488;48.114;11.532;2023-08-01T11:25:36;94310.00;;;24.30
15680;BMP180;15488;48.114;11.532;2023-08-01T11:28:06;94304.00;;;23.70
15680;BMP180;15488;48.114;11.532;2023-08-01T11:30:35;94331.00;;;24.10
15680;BMP180;15488;48.114;11.532;2023-08-01T11:33:12;94317.00;;;24.30
15680;BMP180;15488;48.114;11.532;2023-08-01T11:35:40;94322.00;;;24.10
15680;BMP180;15488;48.114;11.532;2023-08-01T11:38:08;94323.00;;;24.00
15680;BMP180;15488;48.114;11.532;2023-08-01T11:40:36;94334.00;;;24.00
15680;BMP180;15488;48.114;11.532;2023-08-01T11:43:04;94325.00;;;24.10
15680;BMP180;15488;48.114;11.532;2023-08-01T11:45:31;94321.00;;;24.30
15680;BMP180;15488;48.114;11.532;2023-08-01T11:48:01;94330.00;;;24.20
15680;BMP180;15488;48.114;11.532;2023-08-01T11:50:28;94327.00;;;24.20
15680;BMP180;15488;48.114;11.532;2023-08-01T11:52:56;94333.00;;;24.10
15680;BMP180;15488;48.114;11.532;2023-08-01T11:55:25;94331.00;;;24.10
15680;BMP180;15488;48.114;11.532;2023-08-01T11:57:57;94326.00;;;24.10
15680;BMP180;15488;48.114;11.532;2023-08-01T12:00:26;94330.00;;;24.00
15680;BMP180;15488;48.114;11.532;2023-08-01T12:03:05;94332.00;;;23.90
15680;BMP180;15488;48.114;11.532;2023-08-01T12:05:33;94345.00;;;23.90
15680;BMP180;15488;48.114;11.532;2023-08-01T12:08:11;94340.00;;;23.90
15680;BMP180;15488;48.114;11.532;2023-08-01T12:10:39;94337.00;;;24.10
15680;BMP180;15488;48.114;11.532;2023-08-01T12:13:18;94339.00;;;24.10
15680;BMP180;15488;48.114;11.532;2023-08-01T12:15:46;94339.00;;;24.00
15680;BMP180;15488;48.114;11.532;2023-08-01T12:18:21;94339.00;;;24.20
15680;BMP180;15488;48.114;11.532;2023-08-01T12:20:49;94365.00;;;24.40
15680;BMP180;15488;48.114;11.532;2023-08-01T12:23:17;94360.00;;;24.40
15680;BMP180;15488;48.114;11.532;2023-08-01T12:25:44;94362.00;;;24.60
15680;BMP180;15488;48.114;11.532;2023-08-01T12:28:12;94353.00;;;24.70
15680;BMP180;15488;48.114;11.532;2023-08-01T12:30:40;94380.00;;;24.70
15680;BMP180;15488;48.114;11.532;2023-08-01T12:33:08;94377.00;;;24.50
15680;BMP180;15488;48.114;11.532;2023-08-01T12:35:39;94369.00;;;24.60
15680;BMP180;15488;48.114;11.532;2023-08-01T12:38:08;94353.00;;;24.80
15680;BMP180;15488;48.114;11.532;2023-08-01T12:40:35;94341.00;;;24.90
15680;BMP180;15488;48.114;11.532;2023-08-01T12:43:03;94352.00;;;25.00
15680;BMP180;15488;48.114;11.532;2023-08-01T12:45:31;94364.00;;;25.10
15680;BMP180;15488;48.114;11.532;2023-08-01T12:47:59;94346.00;;;24.90
15680;BMP180;15488;48.114;11.532;2023-08-01T12:50:26;94343.00;;;25.10
15680;BMP180;15488;48.114;11.532;2023-08-01T12:52:55;94354.00;;;25.00
15680;BMP180;15488;48.114;11.532;2023-08-01T12:55:23;94346.00;;;25.00
15680;BMP180;15488;48.114;11.532;2023-08-01T12:57:50;94358.00;;;25.10
15680;BMP180;15488;48.114;11.532;2023-08-01T13:00:18;94345.00;;;25.30
15680;BMP180;15488;48.114;11.532;2023-08-01T13:02:46;94352.00;;;25.60
15680;BMP180;15488;48.114;11.532;2023-08-01T13:05:15;94351.00;;;25.60
15680;BMP180;15488;48.114;11.532;2023-08-01T13:07:43;94352.00;;;25.70
15680;BMP180;15488;48.114;11.532;2023-08-01T13:10:12;94335.00;;;26.00
15680;BMP180;15488;48.114;11.532;2023-08-01T13:12:39;94331.00;;;26.00
15680;BMP180;15488;48.114;11.532;2023-08-01T13:15:07;94333.00;;;25.90
15680;BMP180;15488;48.114;11.532;2023-08-01T13:17:35;94341.00;;;25.70
15680;BMP180;15488;48.114;11.532;2023-08-01T13:20:02;94342.00;;;25.70
15680;BMP180;15488;48.114;11.532;2023-08-01T13:22:30;94334.00;;;25.80
15680;BMP180;15488;48.114;11.532;2023-08-01T13:24:58;94330.00;;;25.80
15680;BMP180;15488;48.114;11.532;2023-08-01T13:27:27;94337.00;;;25.70
15680;BMP180;15488;48.114;11.532;2023-08-01T13:29:54;94333.00;;;25.90
15680;BMP180;15488;48.114;11.532;2023-08-01T13:32:21;94336.00;;;26.10
15680;BMP180;15488;48.114;11.532;2023-08-01T13:34:49;94341.00;;;26.20
15680;BMP180;15488;48.114;11.532;2023-08-01T13:37:16;94341.00;;;26.20
15680;BMP180;15488;48.114;11.532;2023-08-01T13:39:44;94328.00;;;26.90
15680;BMP180;15488;48.114;11.532;2023-08-01T13:42:12;94342.00;;;27.40
15680;BMP180;15488;48.114;11.532;2023-08-01T13:44:41;94337.00;;;27.40
15680;BMP180;15488;48.114;11.532;2023-08-01T13:47:08;94335.00;;;27.50
15680;BMP180;15488;48.114;11.532;2023-08-01T13:49:36;94350.00;;;27.70
15680;BMP180;15488;48.114;11.532;2023-08-01T13:52:04;94338.00;;;28.10
15680;BMP180;15488;48.114;11.532;2023-08-01T13:54:32;94324.00;;;29.40
15680;BMP180;15488;48.114;11.532;2023-08-01T13:57:00;94330.00;;;29.90
15680;BMP180;15488;48.114;11.532;2023-08-01T13:59:27;94313.00;;;30.40
15680;BMP180;15488;48.114;11.532;2023-08-01T14:01:57;94316.00;;;31.60
15680;BMP180;15488;48.114;11.532;2023-08-01T14:04:24;94325.00;;;31.70
15680;BMP180;15488;48.114;11.532;2023-08-01T14:06:52;94319.00;;;31.70
15680;BMP180;15488;48.114;11.532;2023-08-01T14:09:19;94318.00;;;31.90